createdAt,value
2018-09-21T00:00:21.484Z,16.36
2018-09-21T00:02:48.372Z,16.28
2018-09-21T00:05:15.276Z,16.20
2018-09-21T00:07:42.165Z,16.16
2018-09-21T00:10:09.067Z,16.08
2018-09-21T00:12:35.968Z,16.06
2018-09-21T00:15:02.864Z,16.01
2018-09-21T00:17:29.766Z,15.99
2018-09-21T00:19:56.670Z,15.97
2018-09-21T00:22:23.581Z,15.91
2018-09-21T00:24:50.485Z,15.86
2018-09-21T00:27:17.407Z,15.78
2018-09-21T00:29:44.316Z,15.82
2018-09-21T00:32:11.244Z,15.84
2018-09-21T00:34:38.204Z,15.82
2018-09-21T00:37:05.280Z,15.75
2018-09-21T00:39:32.186Z,15.72
2018-09-21T00:41:59.118Z,15.69
2018-09-21T00:44:26.035Z,15.63
2018-09-21T00:46:52.996Z,15.57
2018-09-21T00:49:19.954Z,15.62
2018-09-21T00:51:46.885Z,15.60
2018-09-21T00:54:13.813Z,15.54
2018-09-21T00:56:40.799Z,15.57
2018-09-21T00:59:07.742Z,15.58
2018-09-21T01:01:34.682Z,15.56
2018-09-21T01:04:01.600Z,15.53
2018-09-21T01:06:28.545Z,15.53
2018-09-21T01:08:55.461Z,15.54
2018-09-21T01:11:22.393Z,15.50
2018-09-21T01:13:49.312Z,15.43
2018-09-21T01:16:16.276Z,15.48
2018-09-21T01:18:43.186Z,15.57
2018-09-21T01:21:10.124Z,15.66
2018-09-21T01:23:37.027Z,15.84
2018-09-21T01:26:04.049Z,16.05
2018-09-21T01:28:31.004Z,16.23
2018-09-21T01:30:57.944Z,16.35
2018-09-21T01:33:24.861Z,16.45
2018-09-21T01:35:51.797Z,16.54
2018-09-21T01:38:18.697Z,16.61
2018-09-21T01:40:45.609Z,16.65
2018-09-21T01:43:12.591Z,16.74
2018-09-21T01:45:39.495Z,16.82
2018-09-21T01:48:06.414Z,16.87
2018-09-21T01:50:33.379Z,16.90
2018-09-21T01:53:00.224Z,16.94
2018-09-21T01:55:27.116Z,16.93
2018-09-21T01:57:54.021Z,16.92
2018-09-21T02:00:20.932Z,16.94
2018-09-21T02:02:47.913Z,16.94
2018-09-21T02:05:14.803Z,16.92
2018-09-21T02:07:41.717Z,16.94
2018-09-21T02:10:08.622Z,16.96
2018-09-21T02:12:35.525Z,16.92
2018-09-21T02:15:02.445Z,16.96
2018-09-21T02:17:29.347Z,16.98
2018-09-21T02:19:56.270Z,17.05
2018-09-21T02:22:23.197Z,17.16
2018-09-21T02:24:50.097Z,17.15
2018-09-21T02:27:17.008Z,17.14
2018-09-21T02:29:43.909Z,17.10
2018-09-21T02:32:10.845Z,17.08
2018-09-21T02:34:37.757Z,17.09
2018-09-21T02:37:04.724Z,17.04
2018-09-21T02:39:31.648Z,17.05
2018-09-21T02:41:58.560Z,17.07
2018-09-21T02:44:25.471Z,16.98
2018-09-21T02:46:52.401Z,16.96
2018-09-21T02:49:19.329Z,16.98
2018-09-21T02:51:46.241Z,17.00
2018-09-21T02:54:13.183Z,17.02
2018-09-21T02:56:40.889Z,17.02
2018-09-21T02:59:07.833Z,17.08
2018-09-21T03:01:34.748Z,17.11
2018-09-21T03:04:01.677Z,17.14
2018-09-21T03:06:28.601Z,17.12
2018-09-21T03:08:55.574Z,17.11
2018-09-21T03:11:22.457Z,17.14
2018-09-21T03:13:50.078Z,17.21
2018-09-21T03:16:17.756Z,17.19
2018-09-21T03:18:45.457Z,17.18
2018-09-21T03:21:13.457Z,17.22
2018-09-21T03:23:41.326Z,17.23
2018-09-21T03:26:08.968Z,17.21
2018-09-21T03:28:37.281Z,17.15
2018-09-21T03:31:05.063Z,17.18
2018-09-21T03:33:32.705Z,17.19
2018-09-21T03:36:00.333Z,17.23
2018-09-21T03:38:28.380Z,17.20
2018-09-21T03:40:56.137Z,17.19
2018-09-21T03:43:24.880Z,17.22
2018-09-21T03:45:52.966Z,17.27
2018-09-21T03:48:20.605Z,17.29
2018-09-21T03:50:48.248Z,17.28
2018-09-21T03:53:15.890Z,17.34
2018-09-21T03:55:43.561Z,17.36
2018-09-21T03:58:11.379Z,17.38
2018-09-21T04:00:39.004Z,17.45
2018-09-21T04:03:06.725Z,17.47
2018-09-21T04:05:34.468Z,17.53
2018-09-21T04:08:02.123Z,17.53
2018-09-21T04:10:29.679Z,17.52
2018-09-21T04:12:58.312Z,17.58
2018-09-21T04:15:25.936Z,17.57
2018-09-21T04:17:53.989Z,17.58
2018-09-21T04:20:21.686Z,17.56
2018-09-21T04:22:54.071Z,17.59
2018-09-21T04:25:21.768Z,17.60
2018-09-21T04:27:49.515Z,17.68
2018-09-21T04:30:17.137Z,17.69
2018-09-21T04:32:44.777Z,17.68
2018-09-21T04:35:11.762Z,17.68
2018-09-21T04:37:38.668Z,17.71
2018-09-21T04:40:05.601Z,17.75
2018-09-21T04:42:32.530Z,17.76
2018-09-21T04:44:59.475Z,17.75
2018-09-21T04:47:26.405Z,17.74
2018-09-21T04:49:53.321Z,17.72
2018-09-21T04:52:20.316Z,17.72
2018-09-21T04:54:47.190Z,17.75
2018-09-21T04:57:14.100Z,17.74
2018-09-21T04:59:40.996Z,17.73
2018-09-21T05:02:07.888Z,17.70
2018-09-21T05:04:34.802Z,17.75
2018-09-21T05:07:01.713Z,17.79
2018-09-21T05:09:28.625Z,17.86
2018-09-21T05:11:55.517Z,17.90
2018-09-21T05:14:22.460Z,17.99
2018-09-21T05:16:49.365Z,18.01
2018-09-21T05:19:16.284Z,18.03
2018-09-21T05:21:43.191Z,18.09
2018-09-21T05:24:10.639Z,18.14
2018-09-21T05:26:37.576Z,18.14
2018-09-21T05:29:04.940Z,18.14
2018-09-21T05:31:31.860Z,18.15
2018-09-21T05:33:58.793Z,18.12
2018-09-21T05:36:25.745Z,18.11
2018-09-21T05:38:52.713Z,18.15
2018-09-21T05:41:19.633Z,18.19
2018-09-21T05:43:46.544Z,18.23
2018-09-21T05:46:13.473Z,18.24
2018-09-21T05:48:40.404Z,18.28
2018-09-21T05:51:07.346Z,18.31
2018-09-21T05:53:34.376Z,18.33
2018-09-21T05:56:01.372Z,18.31
2018-09-21T06:01:38.005Z,18.25
2018-09-21T06:04:04.924Z,18.27
2018-09-21T06:06:31.862Z,18.29
2018-09-21T06:08:58.785Z,18.38
2018-09-21T06:11:25.713Z,18.44
2018-09-21T06:13:52.695Z,18.50
2018-09-21T06:16:19.605Z,18.52
2018-09-21T06:18:46.716Z,18.53
2018-09-21T06:21:13.657Z,18.54
2018-09-21T06:23:40.582Z,18.55
2018-09-21T06:26:07.541Z,18.58
2018-09-21T06:28:34.443Z,18.57
2018-09-21T06:31:01.374Z,18.63
2018-09-21T06:33:28.290Z,18.64
2018-09-21T06:35:55.210Z,18.66
2018-09-21T06:38:22.128Z,18.68
2018-09-21T06:40:49.189Z,18.74
2018-09-21T06:43:16.222Z,18.76
2018-09-21T06:45:43.155Z,18.79
2018-09-21T06:48:10.074Z,18.80
2018-09-21T06:50:37.016Z,18.85
2018-09-21T06:53:03.963Z,18.94
2018-09-21T06:55:31.097Z,19.01
2018-09-21T06:57:58.021Z,19.14
2018-09-21T07:00:24.994Z,19.26
2018-09-21T07:02:51.913Z,19.42
2018-09-21T07:05:18.832Z,19.52
2018-09-21T07:07:46.020Z,19.61
2018-09-21T07:10:13.507Z,19.72
2018-09-21T07:12:41.151Z,19.85
2018-09-21T07:15:08.612Z,19.85
2018-09-21T07:17:35.534Z,19.86
2018-09-21T07:20:02.709Z,19.85
2018-09-21T07:22:29.640Z,19.89
2018-09-21T07:24:56.548Z,19.95
2018-09-21T07:27:23.479Z,20.05
2018-09-21T07:29:50.583Z,20.17
2018-09-21T07:32:17.504Z,20.19
2018-09-21T07:34:44.437Z,20.28
2018-09-21T07:37:11.356Z,20.35
2018-09-21T07:39:38.313Z,20.44
2018-09-21T07:42:05.257Z,20.51
2018-09-21T07:44:32.186Z,20.60
2018-09-21T07:46:59.085Z,20.70
2018-09-21T07:49:25.992Z,20.84
2018-09-21T07:51:52.970Z,20.95
2018-09-21T07:54:19.893Z,21.08
2018-09-21T07:56:46.793Z,21.19
2018-09-21T07:59:13.704Z,21.30
2018-09-21T08:01:40.604Z,21.38
2018-09-21T08:04:07.533Z,21.44
2018-09-21T08:06:34.495Z,21.53
2018-09-21T08:09:01.404Z,21.59
2018-09-21T08:11:28.330Z,21.58
2018-09-21T08:13:55.234Z,21.61
2018-09-21T08:16:22.156Z,21.67
2018-09-21T08:18:49.100Z,21.71
2018-09-21T08:21:16.029Z,21.82
2018-09-21T08:23:42.937Z,21.87
2018-09-21T08:26:09.857Z,21.89
2018-09-21T08:28:36.766Z,21.92
2018-09-21T08:31:03.696Z,22.02
2018-09-21T08:33:30.641Z,22.10
2018-09-21T08:35:57.621Z,22.18
2018-09-21T08:38:24.532Z,22.25
2018-09-21T08:40:51.438Z,22.29
2018-09-21T08:43:18.344Z,22.27
2018-09-21T08:45:45.249Z,22.25
2018-09-21T08:48:12.159Z,22.20
2018-09-21T08:50:39.048Z,22.25
2018-09-21T08:53:06.003Z,22.28
2018-09-21T08:55:32.903Z,22.28
2018-09-21T08:57:59.813Z,22.25
2018-09-21T09:00:26.713Z,22.26
2018-09-21T09:02:53.630Z,22.28
2018-09-21T09:05:22.394Z,22.46
2018-09-21T09:07:49.630Z,22.52
2018-09-21T09:10:16.549Z,22.51
2018-09-21T09:12:43.445Z,22.50
2018-09-21T09:15:10.372Z,22.36
2018-09-21T09:17:37.285Z,22.28
2018-09-21T09:20:04.188Z,22.25
2018-09-21T09:22:31.097Z,22.22
2018-09-21T09:24:58.043Z,22.18
2018-09-21T09:27:24.921Z,22.16
2018-09-21T09:29:51.876Z,22.15
2018-09-21T09:32:18.774Z,22.12
2018-09-21T09:34:45.688Z,22.03
2018-09-21T09:37:12.596Z,21.66
2018-09-21T09:39:39.501Z,20.75
2018-09-21T09:42:06.437Z,19.96
2018-09-21T09:44:33.341Z,19.46
2018-09-21T09:47:00.288Z,19.18
2018-09-21T09:49:27.190Z,18.94
2018-09-21T09:51:54.112Z,18.71
2018-09-21T09:54:21.069Z,18.48
2018-09-21T09:56:47.988Z,18.35
2018-09-21T09:59:14.930Z,18.32
2018-09-21T10:01:41.835Z,18.32
2018-09-21T10:04:08.817Z,18.21
2018-09-21T10:06:35.741Z,18.15
2018-09-21T10:09:02.941Z,18.08
2018-09-21T10:11:29.937Z,18.03
2018-09-21T10:13:57.069Z,18.00
2018-09-21T10:16:24.119Z,17.97
2018-09-21T10:18:57.815Z,17.91
2018-09-21T10:21:24.745Z,17.86
2018-09-21T10:23:51.672Z,17.77
2018-09-21T10:26:18.604Z,17.77
2018-09-21T10:28:45.721Z,17.69
2018-09-21T10:31:12.549Z,17.67
2018-09-21T10:33:39.914Z,17.64
2018-09-21T10:36:06.671Z,17.59
2018-09-21T10:38:33.595Z,16.80
2018-09-21T10:41:00.548Z,15.84
2018-09-21T10:43:27.468Z,15.58
2018-09-21T10:45:54.376Z,15.45
2018-09-21T10:48:21.301Z,15.26
2018-09-21T10:50:48.192Z,15.14
2018-09-21T10:53:15.100Z,14.95
2018-09-21T10:55:42.000Z,14.84
2018-09-21T10:58:08.912Z,14.72
2018-09-21T11:00:35.903Z,14.62
2018-09-21T11:03:03.061Z,14.45
2018-09-21T11:05:30.029Z,14.28
2018-09-21T11:07:56.943Z,14.43
2018-09-21T11:10:23.845Z,14.47
2018-09-21T11:12:50.749Z,14.39
2018-09-21T11:15:17.643Z,14.39
2018-09-21T11:17:44.557Z,14.32
2018-09-21T11:20:11.465Z,14.36
2018-09-21T11:22:38.381Z,14.36
2018-09-21T11:25:05.345Z,14.40
2018-09-21T11:27:32.252Z,14.48
2018-09-21T11:29:59.158Z,14.33
2018-09-21T11:32:26.064Z,14.35
2018-09-21T11:34:52.989Z,14.34
2018-09-21T11:37:19.897Z,14.36
2018-09-21T11:39:46.820Z,14.42
2018-09-21T11:42:13.728Z,14.45
2018-09-21T11:44:40.636Z,14.39
2018-09-21T11:47:07.621Z,14.43
2018-09-21T11:49:34.474Z,14.44
2018-09-21T11:52:01.389Z,14.38
2018-09-21T11:54:28.376Z,14.42
2018-09-21T11:56:55.264Z,14.58
2018-09-21T11:59:22.165Z,14.56
2018-09-21T12:01:49.105Z,14.34
2018-09-21T12:04:16.043Z,14.21
2018-09-21T12:06:42.937Z,14.09
2018-09-21T12:09:09.856Z,13.99
2018-09-21T12:11:36.773Z,13.91
2018-09-21T12:14:03.901Z,14.04
2018-09-21T12:16:30.790Z,14.01
2018-09-21T12:18:57.697Z,13.93
2018-09-21T12:21:24.596Z,13.95
2018-09-21T12:23:51.497Z,13.93
2018-09-21T12:26:18.400Z,13.83
2018-09-21T12:28:45.303Z,13.81
2018-09-21T12:31:12.211Z,13.89
2018-09-21T12:33:39.109Z,13.84
2018-09-21T12:36:07.027Z,13.88
2018-09-21T12:38:33.927Z,13.96
2018-09-21T12:41:00.815Z,13.96
2018-09-21T12:43:27.721Z,13.99
2018-09-21T12:45:54.618Z,14.00
2018-09-21T12:48:21.516Z,14.05
2018-09-21T12:50:48.480Z,14.08
2018-09-21T12:53:15.325Z,14.04
2018-09-21T12:55:42.217Z,14.00
2018-09-21T12:58:09.173Z,13.98
2018-09-21T13:00:41.744Z,13.98
2018-09-21T13:03:08.633Z,14.04
2018-09-21T13:05:35.540Z,14.11
2018-09-21T13:08:02.479Z,14.24
2018-09-21T13:10:29.385Z,14.31
2018-09-21T13:12:56.305Z,14.42
2018-09-21T13:15:23.217Z,14.54
2018-09-21T13:17:50.111Z,14.51
2018-09-21T13:20:17.015Z,14.52
2018-09-21T13:22:43.908Z,14.71
2018-09-21T13:25:10.816Z,14.79
2018-09-21T13:27:37.712Z,14.63
2018-09-21T13:30:04.792Z,14.80
2018-09-21T13:32:31.696Z,14.72
2018-09-21T13:34:58.585Z,14.81
2018-09-21T13:37:25.495Z,14.80
2018-09-21T13:39:52.394Z,14.84
2018-09-21T13:42:19.289Z,14.82
2018-09-21T13:44:46.201Z,14.77
2018-09-21T13:47:13.089Z,14.85
2018-09-21T13:49:40.001Z,14.86
2018-09-21T13:52:06.916Z,14.91
2018-09-21T13:54:33.900Z,14.78
2018-09-21T13:57:00.801Z,14.78
2018-09-21T13:59:27.742Z,14.68
2018-09-21T14:01:54.647Z,14.71
2018-09-21T14:04:21.536Z,14.66
2018-09-21T14:06:48.439Z,14.63
2018-09-21T14:09:15.357Z,14.74
2018-09-21T14:11:42.261Z,14.83
2018-09-21T14:14:09.180Z,15.00
2018-09-21T14:16:36.073Z,14.98
2018-09-21T14:19:04.428Z,15.01
2018-09-21T14:21:31.841Z,14.88
2018-09-21T14:23:58.694Z,14.95
2018-09-21T14:26:25.626Z,14.98
2018-09-21T14:28:53.176Z,15.01
2018-09-21T14:31:20.056Z,14.97
2018-09-21T14:33:46.987Z,14.91
2018-09-21T14:36:13.897Z,14.93
2018-09-21T14:38:40.780Z,14.88
2018-09-21T14:41:07.893Z,14.87
2018-09-21T14:43:34.820Z,14.91
2018-09-21T14:46:01.713Z,14.80
2018-09-21T14:48:28.624Z,14.77
2018-09-21T14:50:55.550Z,14.49
2018-09-21T14:53:22.461Z,14.29
2018-09-21T14:55:49.364Z,13.76
2018-09-21T14:58:16.247Z,13.48
2018-09-21T15:00:43.137Z,13.54
2018-09-21T15:03:10.029Z,13.46
2018-09-21T15:05:36.951Z,13.53
2018-09-21T15:08:03.841Z,13.50
2018-09-21T15:10:30.748Z,13.46
2018-09-21T15:12:57.644Z,13.39
2018-09-21T15:15:24.542Z,13.38
2018-09-21T15:17:51.440Z,13.32
2018-09-21T15:20:18.351Z,13.23
2018-09-21T15:22:45.272Z,13.04
2018-09-21T15:25:12.208Z,12.88
2018-09-21T15:27:39.165Z,12.57
2018-09-21T15:30:06.050Z,12.50
2018-09-21T15:32:32.986Z,12.58
2018-09-21T15:34:59.900Z,12.52
2018-09-21T15:37:26.853Z,12.43
2018-09-21T15:39:53.799Z,12.51
2018-09-21T15:42:20.713Z,12.57
2018-09-21T15:44:47.636Z,12.60
2018-09-21T15:47:14.600Z,12.67
2018-09-21T15:49:41.525Z,12.72
2018-09-21T15:52:08.470Z,12.69
2018-09-21T15:54:35.693Z,12.77
2018-09-21T15:57:02.657Z,12.84
2018-09-21T15:59:29.669Z,12.83
2018-09-21T16:02:03.315Z,12.85
2018-09-21T16:04:30.228Z,12.87
2018-09-21T16:06:57.166Z,12.92
2018-09-21T16:09:24.100Z,12.90
2018-09-21T16:11:51.050Z,12.89
2018-09-21T16:14:17.993Z,12.91
2018-09-21T16:16:45.017Z,12.92
2018-09-21T16:19:11.936Z,12.89
2018-09-21T16:21:38.847Z,12.91
2018-09-21T16:24:05.896Z,12.94
2018-09-21T16:26:32.805Z,12.95
2018-09-21T16:28:59.720Z,12.95
2018-09-21T16:31:26.660Z,12.96
2018-09-21T16:33:53.608Z,12.93
2018-09-21T16:36:20.579Z,12.95
2018-09-21T16:38:47.441Z,12.93
2018-09-21T16:41:14.457Z,12.88
2018-09-21T16:43:41.365Z,12.90
2018-09-21T16:46:08.270Z,12.92
2018-09-21T16:48:35.196Z,12.97
2018-09-21T16:51:02.114Z,13.03
2018-09-21T16:53:29.036Z,12.96
2018-09-21T16:55:55.936Z,12.90
2018-09-21T16:58:22.845Z,12.87
2018-09-21T17:00:49.936Z,12.92
2018-09-21T17:03:17.016Z,12.69
2018-09-21T17:05:43.890Z,12.41
2018-09-21T17:08:10.825Z,12.23
2018-09-21T17:10:37.707Z,12.14
2018-09-21T17:13:04.673Z,12.13
2018-09-21T17:15:31.585Z,12.08
2018-09-21T17:17:58.492Z,12.03
2018-09-21T17:20:25.403Z,12.07
2018-09-21T17:22:52.314Z,11.98
2018-09-21T17:25:19.311Z,11.83
2018-09-21T17:27:46.256Z,11.93
2018-09-21T17:30:13.170Z,11.92
2018-09-21T17:32:40.088Z,11.92
2018-09-21T17:35:07.028Z,11.98
2018-09-21T17:37:34.022Z,11.92
2018-09-21T17:40:00.906Z,11.93
2018-09-21T17:42:27.795Z,11.80
2018-09-21T17:44:54.721Z,11.90
2018-09-21T17:47:21.672Z,11.85
2018-09-21T17:49:48.593Z,11.84
2018-09-21T17:52:15.497Z,11.77
2018-09-21T17:54:42.417Z,11.79
2018-09-21T17:57:09.334Z,11.78
2018-09-21T17:59:36.276Z,11.94
2018-09-21T18:02:03.221Z,11.94
2018-09-21T18:04:30.186Z,11.98
2018-09-21T18:06:57.096Z,12.05
2018-09-21T18:09:24.021Z,12.08
2018-09-21T18:11:50.925Z,12.06
2018-09-21T18:14:17.845Z,12.03
2018-09-21T18:16:44.900Z,12.01
2018-09-21T18:19:11.807Z,11.99
2018-09-21T18:21:38.717Z,11.89
2018-09-21T18:24:05.684Z,11.91
2018-09-21T18:26:33.730Z,11.93
2018-09-21T18:29:00.908Z,11.91
2018-09-21T18:31:27.847Z,11.93
2018-09-21T18:33:55.003Z,11.91
2018-09-21T18:36:21.957Z,11.94
2018-09-21T18:38:48.859Z,11.02
2018-09-21T18:41:15.786Z,10.14
2018-09-21T18:43:42.733Z,9.86
2018-09-21T18:46:09.659Z,9.72
2018-09-21T18:48:36.575Z,9.63
2018-09-21T18:51:03.729Z,9.60
2018-09-21T18:53:30.649Z,9.59
2018-09-21T18:55:57.566Z,9.56
2018-09-21T18:58:24.489Z,9.53
2018-09-21T19:00:51.418Z,9.51
2018-09-21T19:03:18.321Z,9.52
2018-09-21T19:05:45.248Z,9.36
2018-09-21T19:08:12.181Z,9.36
2018-09-21T19:10:39.100Z,9.17
2018-09-21T19:13:06.024Z,9.09
2018-09-21T19:15:33.176Z,9.15
2018-09-21T19:18:00.071Z,9.17
2018-09-21T19:20:26.984Z,9.25
2018-09-21T19:22:53.898Z,9.43
2018-09-21T19:25:20.986Z,9.45
2018-09-21T19:27:47.928Z,9.37
2018-09-21T19:30:14.831Z,9.42
2018-09-21T19:32:41.771Z,9.36
2018-09-21T19:35:08.680Z,9.20
2018-09-21T19:37:35.593Z,8.98
2018-09-21T19:40:03.229Z,8.87
2018-09-21T19:42:30.192Z,8.96
2018-09-21T19:44:57.132Z,9.02
2018-09-21T19:47:23.975Z,8.95
2018-09-21T19:49:50.880Z,8.87
2018-09-21T19:52:17.767Z,8.84
2018-09-21T19:54:44.699Z,8.88
2018-09-21T19:57:11.570Z,8.94
2018-09-21T19:59:38.464Z,8.93
2018-09-21T20:02:05.358Z,8.84
2018-09-21T20:04:32.271Z,8.86
2018-09-21T20:06:59.190Z,8.89
2018-09-21T20:09:26.105Z,8.95
2018-09-21T20:11:53.008Z,8.97
2018-09-21T20:14:19.896Z,9.06
2018-09-21T20:16:46.797Z,9.10
2018-09-21T20:19:13.707Z,9.08
2018-09-21T20:21:40.644Z,9.17
2018-09-21T20:24:07.549Z,9.23
2018-09-21T20:26:34.445Z,9.27
2018-09-21T20:29:01.404Z,9.30
2018-09-21T20:31:34.168Z,9.29
2018-09-21T20:34:01.113Z,9.25
2018-09-21T20:36:28.032Z,9.26
2018-09-21T20:38:54.973Z,9.23
2018-09-21T20:41:21.888Z,9.21
2018-09-21T20:43:48.824Z,9.22
2018-09-21T20:46:15.729Z,9.38
2018-09-21T20:48:42.665Z,9.39
2018-09-21T20:51:09.580Z,9.32
2018-09-21T20:53:36.491Z,9.28
2018-09-21T20:56:03.421Z,9.35
2018-09-21T20:58:30.336Z,9.43
2018-09-21T21:00:57.328Z,9.41
2018-09-21T21:03:24.228Z,9.36
2018-09-21T21:05:51.180Z,9.30
2018-09-21T21:08:18.371Z,9.32
2018-09-21T21:10:45.288Z,9.29
2018-09-21T21:13:12.213Z,9.19
2018-09-21T21:15:39.128Z,9.17
2018-09-21T21:18:06.292Z,9.19
2018-09-21T21:20:33.244Z,9.15
2018-09-21T21:23:00.168Z,9.11
2018-09-21T21:25:27.095Z,9.06
2018-09-21T21:27:54.009Z,9.04
2018-09-21T21:30:20.936Z,8.98
2018-09-21T21:32:47.848Z,8.96
2018-09-21T21:35:14.759Z,8.95
2018-09-21T21:37:41.679Z,8.91
2018-09-21T21:40:08.740Z,8.89
2018-09-21T21:42:35.657Z,8.86
2018-09-21T21:45:02.584Z,8.89
2018-09-21T21:47:29.512Z,8.87
2018-09-21T21:49:56.473Z,8.83
2018-09-21T21:52:23.399Z,8.83
2018-09-21T21:54:50.310Z,8.79
2018-09-21T21:57:17.211Z,8.81
2018-09-21T21:59:44.574Z,8.75
2018-09-21T22:02:18.194Z,8.79
2018-09-21T22:04:45.106Z,8.74
2018-09-21T22:07:12.424Z,8.73
2018-09-21T22:09:39.388Z,8.73
2018-09-21T22:12:11.972Z,8.78
2018-09-21T22:14:38.892Z,8.80
2018-09-21T22:17:06.556Z,8.80
2018-09-21T22:19:33.464Z,8.82
2018-09-21T22:22:00.396Z,8.80
2018-09-21T22:24:27.300Z,8.78
2018-09-21T22:26:54.197Z,8.79
2018-09-21T22:29:21.103Z,8.75
2018-09-21T22:31:48.033Z,8.73
2018-09-21T22:34:14.937Z,8.71
2018-09-21T22:36:41.863Z,8.66
2018-09-21T22:39:08.813Z,8.64
2018-09-21T22:41:35.740Z,8.63
2018-09-21T22:44:02.669Z,8.62
2018-09-21T22:46:29.595Z,8.63
2018-09-21T22:48:56.728Z,8.59
2018-09-21T22:51:23.644Z,8.58
2018-09-21T22:53:50.561Z,8.57
2018-09-21T22:56:17.484Z,8.58
2018-09-21T22:58:44.395Z,8.68
2018-09-21T23:01:11.396Z,8.72
2018-09-21T23:03:38.321Z,8.74
2018-09-21T23:06:05.712Z,8.72
2018-09-21T23:08:32.624Z,8.72
2018-09-21T23:10:59.548Z,8.68
2018-09-21T23:13:26.478Z,8.63
2018-09-21T23:15:53.408Z,8.60
2018-09-21T23:18:20.326Z,8.55
2018-09-21T23:20:47.315Z,8.52
2018-09-21T23:23:14.241Z,8.52
2018-09-21T23:25:41.152Z,8.51
2018-09-21T23:28:08.664Z,8.53
2018-09-21T23:30:35.588Z,8.48
2018-09-21T23:33:02.509Z,8.42
2018-09-21T23:35:29.425Z,8.42
2018-09-21T23:37:56.331Z,8.46
2018-09-21T23:40:23.236Z,8.45
2018-09-21T23:42:50.149Z,8.40
2018-09-21T23:45:17.057Z,8.39
2018-09-21T23:47:44.085Z,8.37
2018-09-21T23:50:10.985Z,8.41
2018-09-21T23:52:37.896Z,8.35
2018-09-21T23:55:04.973Z,8.38
2018-09-21T23:57:31.904Z,8.37
2018-09-21T23:59:58.822Z,8.47
